Time;durP1;ratioP1;P1;durP2;ratioP2;P2;SDS_P1;SDS_P2;PMS_P1;PMS_P2;Temp;Humidity;BMP_temperature;BMP_pressure;BME280_temperature;BME280_humidity;BME280_pressure;Samples;Min_cycle;Max_cycle;Signal;HPM_P1;HPM_P2
2023/11/10 00:00:30;;;;;;;1.40;1.10;;;22.50;58.00;;;;;;6090768;23;95686;-85
2023/11/10 00:02:56;;;;;;;1.25;1.10;;;22.50;58.10;;;;;;6092451;23;92404;-85
2023/11/10 00:05:25;;;;;;;2.08;1.17;;;22.40;57.80;;;;;;6076017;23;92836;-85
2023/11/10 00:07:51;;;;;;;2.35;1.02;;;22.40;57.90;;;;;;6064845;23;96082;-86
2023/11/10 00:10:17;;;;;;;3.83;0.95;;;22.40;58.10;;;;;;6089776;23;95001;-85
2023/11/10 00:12:45;;;;;;;2.10;1.23;;;22.40;58.10;;;;;;6090018;23;92583;-86
2023/11/10 00:15:11;;;;;;;1.92;1.33;;;22.40;58.10;;;;;;6087173;23;92762;-85
2023/11/10 00:17:55;;;;;;;1.75;1.23;;;22.40;58.30;;;;;;6085685;23;95844;-85
2023/11/10 00:20:22;;;;;;;3.53;1.33;;;22.40;58.20;;;;;;6083822;23;93240;-85
2023/11/10 00:22:48;;;;;;;1.38;1.13;;;22.40;58.10;;;;;;6101817;22;92617;-85
2023/11/10 00:25:14;;;;;;;1.70;1.27;;;22.30;58.00;;;;;;6112293;23;92557;-84
2023/11/10 00:27:39;;;;;;;2.25;1.00;;;22.40;58.10;;;;;;6084663;23;95561;-86
2023/11/10 00:30:06;;;;;;;2.25;1.27;;;22.30;58.00;;;;;;6087248;23;95225;-86
2023/11/10 00:32:36;;;;;;;2.33;1.30;;;22.30;58.00;;;;;;6085606;23;92842;-87
2023/11/10 00:35:05;;;;;;;3.17;1.17;;;22.30;58.10;;;;;;6087400;23;91876;-86
2023/11/10 00:37:33;;;;;;;3.38;1.02;;;22.30;58.10;;;;;;6087675;23;95352;-85
2023/11/10 00:40:00;;;;;;;2.15;1.10;;;22.20;58.10;;;;;;6088793;23;93925;-85
2023/11/10 00:42:29;;;;;;;3.10;1.05;;;22.20;58.00;;;;;;6087263;23;93568;-86
2023/11/10 00:44:56;;;;;;;2.30;1.20;;;22.20;58.10;;;;;;6088746;23;92381;-85
2023/11/10 00:47:25;;;;;;;1.23;0.90;;;22.20;58.00;;;;;;6087202;23;93945;-86
2023/11/10 00:49:53;;;;;;;1.85;1.13;;;22.20;58.30;;;;;;6089646;23;94342;-85
2023/11/10 00:52:20;;;;;;;2.03;1.13;;;22.20;58.10;;;;;;6091799;23;92255;-85
2023/11/10 00:54:47;;;;;;;1.52;0.82;;;22.20;58.30;;;;;;6091996;23;92566;-86
2023/11/10 00:57:13;;;;;;;1.65;1.10;;;22.10;58.00;;;;;;6114784;23;96841;-85
2023/11/10 00:59:41;;;;;;;2.50;1.40;;;22.10;58.00;;;;;;6089599;23;95405;-85
2023/11/10 01:02:07;;;;;;;1.48;0.90;;;22.10;58.20;;;;;;6090113;23;92743;-85
2023/11/10 01:04:33;;;;;;;2.10;1.08;;;22.10;58.00;;;;;;6093064;23;92994;-86
2023/11/10 01:06:58;;;;;;;1.95;1.02;;;22.10;58.10;;;;;;6089931;23;94439;-86
2023/11/10 01:09:24;;;;;;;2.88;0.90;;;22.10;58.00;;;;;;6092234;23;93282;-86
2023/11/10 01:11:50;;;;;;;1.85;1.05;;;22.10;58.10;;;;;;6091101;23;92501;-85
2023/11/10 01:14:15;;;;;;;2.03;1.02;;;22.10;58.10;;;;;;6090796;23;92511;-85
2023/11/10 01:16:41;;;;;;;2.85;1.02;;;22.10;58.20;;;;;;6088609;23;97889;-85
2023/11/10 01:19:08;;;;;;;1.98;0.98;;;22.10;58.10;;;;;;6089191;23;96288;-85
2023/11/10 01:21:36;;;;;;;1.58;1.02;;;22.00;58.00;;;;;;6089254;23;93330;-85
2023/11/10 01:24:02;;;;;;;2.05;0.88;;;22.00;58.20;;;;;;6091135;23;91324;-84
2023/11/10 01:26:32;;;;;;;1.98;1.13;;;22.00;58.10;;;;;;6087964;23;93832;-86
2023/11/10 01:29:03;;;;;;;0.82;0.82;;;22.00;58.20;;;;;;6089515;23;94573;-85
2023/11/10 01:31:29;;;;;;;1.77;0.95;;;22.00;58.20;;;;;;6091907;23;93182;-84
2023/11/10 01:33:54;;;;;;;1.38;1.08;;;22.00;58.10;;;;;;6090446;23;92270;-85
2023/11/10 01:36:20;;;;;;;2.03;1.40;;;22.00;58.20;;;;;;6088564;23;95936;-86
2023/11/10 01:38:46;;;;;;;2.50;0.90;;;22.00;58.20;;;;;;6090177;23;96235;-85
2023/11/10 01:41:29;;;;;;;2.47;1.08;;;21.90;57.90;;;;;;6090942;23;92638;-86
2023/11/10 01:43:55;;;;;;;1.90;1.08;;;21.90;58.00;;;;;;6091451;23;92478;-85
2023/11/10 01:46:45;;;;;;;1.15;0.80;;;21.90;58.00;;;;;;6092471;23;93470;-85
2023/11/10 01:49:14;;;;;;;1.70;1.00;;;21.90;58.00;;;;;;6092854;23;97396;-86
2023/11/10 01:51:40;;;;;;;2.63;1.45;;;21.90;58.00;;;;;;6092581;23;92454;-85
2023/11/10 01:54:07;;;;;;;1.95;1.10;;;21.90;58.00;;;;;;6088796;23;92077;-86
2023/11/10 01:56:33;;;;;;;1.50;0.93;;;21.90;58.20;;;;;;6090761;23;96330;-86
2023/11/10 01:59:05;;;;;;;1.27;0.73;;;21.90;58.10;;;;;;6090669;23;94119;-85
2023/11/10 02:01:33;;;;;;;1.17;0.52;;;21.80;58.10;;;;;;6091789;23;92001;-85
2023/11/10 02:04:19;;;;;;;2.20;0.90;;;21.80;58.10;;;;;;6114059;23;92522;-84
2023/11/10 02:06:47;;;;;;;2.45;1.20;;;21.80;58.10;;;;;;6089171;23;92781;-86
2023/11/10 02:09:13;;;;;;;3.05;0.88;;;21.80;58.10;;;;;;6089384;23;96043;-85
2023/11/10 02:11:39;;;;;;;1.83;1.00;;;21.80;58.20;;;;;;6089021;23;92347;-85
2023/11/10 02:14:06;;;;;;;1.52;0.75;;;21.80;58.00;;;;;;6090662;23;91617;-85
2023/11/10 02:16:35;;;;;;;1.60;0.90;;;21.80;58.00;;;;;;6092340;23;92615;-86
2023/11/10 02:19:02;;;;;;;3.53;0.85;;;21.80;58.10;;;;;;6117748;23;99000;-85
2023/11/10 02:21:30;;;;;;;1.17;0.70;;;21.80;58.00;;;;;;6095068;23;93127;-86
2023/11/10 02:24:04;;;;;;;1.53;0.87;;;21.80;58.20;;;;;;6093630;23;92108;-86
2023/11/10 02:26:30;;;;;;;1.65;1.05;;;21.80;58.10;;;;;;6094381;23;94326;-86
2023/11/10 02:28:55;;;;;;;3.15;1.08;;;21.80;58.30;;;;;;6093921;23;93753;-86
2023/11/10 02:31:21;;;;;;;1.33;0.90;;;21.80;58.10;;;;;;6095470;23;92451;-86
2023/11/10 02:33:47;;;;;;;1.65;1.10;;;21.70;58.00;;;;;;6097086;23;92267;-85
2023/11/10 02:36:13;;;;;;;1.45;0.95;;;21.70;58.00;;;;;;6095910;23;95982;-85
2023/11/10 02:38:42;;;;;;;1.00;0.80;;;21.70;58.00;;;;;;6098550;23;92272;-85
2023/11/10 02:41:08;;;;;;;1.92;1.10;;;21.70;58.10;;;;;;6097884;23;92536;-84
2023/11/10 02:43:34;;;;;;;1.50;1.10;;;21.70;58.10;;;;;;6095459;23;92950;-85
2023/11/10 02:46:01;;;;;;;2.17;0.90;;;21.70;58.80;;;;;;6093442;23;102327;-85
2023/11/10 02:48:26;;;;;;;1.50;0.93;;;21.70;58.10;;;;;;6090541;23;95745;-85
2023/11/10 02:50:53;;;;;;;2.42;0.60;;;21.70;58.10;;;;;;6091830;23;92268;-85
2023/11/10 02:53:19;;;;;;;1.75;0.93;;;21.70;58.20;;;;;;6095748;23;92908;-85
2023/11/10 02:55:45;;;;;;;1.75;0.90;;;21.70;58.00;;;;;;6113663;23;92197;-87
2023/11/10 02:58:11;;;;;;;1.60;1.05;;;21.60;58.00;;;;;;6115901;23;94037;-86
2023/11/10 03:00:44;;;;;;;2.03;1.00;;;21.60;58.10;;;;;;6136960;22;91740;-87
2023/11/10 03:03:12;;;;;;;1.88;1.05;;;21.60;58.10;;;;;;6112271;23;91198;-86
2023/11/10 03:05:41;;;;;;;2.10;1.20;;;21.60;58.10;;;;;;6113932;23;92656;-87
2023/11/10 03:08:07;;;;;;;1.20;0.93;;;21.60;58.10;;;;;;6138051;22;93907;-86
2023/11/10 03:10:33;;;;;;;1.50;0.90;;;21.60;58.30;;;;;;6113166;23;92711;-85
2023/11/10 03:13:50;;;;;;;1.02;0.77;;;21.60;58.20;;;;;;6095287;23;92531;-85
2023/11/10 03:16:16;;;;;;;2.42;0.75;;;21.60;58.30;;;;;;6066397;23;96209;-85
2023/11/10 03:18:42;;;;;;;1.08;0.65;;;21.60;58.40;;;;;;6092342;23;95896;-85
2023/11/10 03:21:07;;;;;;;1.40;0.80;;;21.60;58.30;;;;;;6092106;23;92263;-85
2023/11/10 03:23:34;;;;;;;1.63;0.98;;;21.60;58.20;;;;;;6115017;23;92422;-85
2023/11/10 03:26:01;;;;;;;0.90;0.70;;;21.60;58.20;;;;;;6088918;23;94090;-85
2023/11/10 03:28:27;;;;;;;2.25;1.10;;;21.50;58.00;;;;;;6092365;23;93915;-85
2023/11/10 03:30:55;;;;;;;0.90;0.70;;;21.50;58.10;;;;;;6089009;23;92104;-85
2023/11/10 03:33:22;;;;;;;2.58;0.80;;;21.50;58.00;;;;;;6089010;23;92262;-85
2023/11/10 03:35:48;;;;;;;0.77;0.73;;;21.50;58.10;;;;;;6085378;23;94880;-85
2023/11/10 03:38:14;;;;;;;1.20;0.93;;;21.50;58.00;;;;;;6086078;23;94516;-85
2023/11/10 03:40:40;;;;;;;2.20;1.20;;;21.50;57.90;;;;;;6087216;23;92257;-85
2023/11/10 03:43:06;;;;;;;1.90;1.05;;;21.50;58.00;;;;;;6087835;23;92479;-85
2023/11/10 03:45:32;;;;;;;1.10;0.65;;;21.50;57.90;;;;;;6087843;23;93626;-85
2023/11/10 03:48:05;;;;;;;1.08;0.90;;;21.50;58.00;;;;;;6084315;23;93617;-86
2023/11/10 03:50:51;;;;;;;1.23;0.98;;;21.50;58.10;;;;;;6085978;23;92377;-85
2023/11/10 03:53:16;;;;;;;1.40;0.82;;;21.50;58.10;;;;;;6086010;23;92086;-85
2023/11/10 03:55:43;;;;;;;1.20;0.77;;;21.50;58.20;;;;;;6085328;23;96743;-84
2023/11/10 03:58:16;;;;;;;1.38;0.93;;;21.50;58.00;;;;;;6087551;23;93639;-84
2023/11/10 04:00:42;;;;;;;0.98;0.85;;;21.50;58.00;;;;;;6084723;23;93299;-85
2023/11/10 04:03:08;;;;;;;1.25;0.90;;;21.40;58.00;;;;;;6088183;23;91937;-85
2023/11/10 04:05:33;;;;;;;2.30;0.90;;;21.40;58.10;;;;;;6073818;23;96638;-86
2023/11/10 04:07:59;;;;;;;1.63;0.80;;;21.40;58.10;;;;;;6086742;23;95264;-84
2023/11/10 04:10:28;;;;;;;1.90;0.93;;;21.40;58.00;;;;;;6111230;22;92729;-85
2023/11/10 04:12:54;;;;;;;1.35;1.00;;;21.40;58.00;;;;;;6086449;23;91971;-85
2023/11/10 04:15:20;;;;;;;1.52;0.95;;;21.40;57.90;;;;;;6081389;23;96663;-85
2023/11/10 04:17:45;;;;;;;0.60;0.60;;;21.40;58.00;;;;;;6083463;23;94938;-85
2023/11/10 04:20:11;;;;;;;1.33;0.70;;;21.40;58.10;;;;;;6087446;23;92420;-85
2023/11/10 04:22:41;;;;;;;0.90;0.70;;;21.40;58.10;;;;;;6083871;23;92769;-85
2023/11/10 04:25:10;;;;;;;2.25;0.98;;;21.40;58.10;;;;;;6085334;23;95140;-85
2023/11/10 04:27:36;;;;;;;0.70;0.70;;;21.40;58.10;;;;;;6084151;23;97168;-85
2023/11/10 04:30:03;;;;;;;1.45;0.85;;;21.40;58.20;;;;;;6084961;23;92537;-84
2023/11/10 04:32:38;;;;;;;2.75;1.00;;;21.40;58.00;;;;;;6086199;23;92176;-85
2023/11/10 04:35:04;;;;;;;1.20;0.50;;;21.40;58.20;;;;;;6085722;23;94675;-84
2023/11/10 04:37:29;;;;;;;1.65;0.80;;;21.30;57.90;;;;;;6087001;23;92820;-85
2023/11/10 04:39:57;;;;;;;0.95;0.70;;;21.30;58.00;;;;;;6086868;23;92557;-85
2023/11/10 04:42:23;;;;;;;1.00;0.75;;;21.30;58.10;;;;;;6086497;23;91685;-85
2023/11/10 04:44:48;;;;;;;0.77;0.70;;;21.30;57.90;;;;;;6088274;23;93899;-86
2023/11/10 04:47:16;;;;;;;1.60;1.02;;;21.30;58.00;;;;;;6086887;23;93064;-84
2023/11/10 04:50:02;;;;;;;1.85;1.00;;;21.40;58.00;;;;;;6084885;23;93435;-86
2023/11/10 04:52:29;;;;;;;1.38;0.80;;;21.30;58.00;;;;;;6111159;22;92600;-85
2023/11/10 04:54:54;;;;;;;1.17;0.90;;;21.30;58.10;;;;;;6073505;23;96502;-84
2023/11/10 04:57:21;;;;;;;2.30;1.00;;;21.30;58.10;;;;;;6085202;23;95097;-84
2023/11/10 04:59:47;;;;;;;1.38;1.00;;;21.30;57.90;;;;;;6086823;23;93142;-84
2023/11/10 05:02:13;;;;;;;0.82;0.63;;;21.30;58.00;;;;;;6087454;23;92384;-85
2023/11/10 05:04:46;;;;;;;1.10;0.75;;;21.30;57.90;;;;;;6085759;23;95461;-85
2023/11/10 05:07:13;;;;;;;0.77;0.60;;;21.30;58.00;;;;;;6087459;23;94144;-86
2023/11/10 05:09:39;;;;;;;1.23;0.82;;;21.20;57.90;;;;;;6084453;23;92453;-85
2023/11/10 05:12:05;;;;;;;0.80;0.50;;;21.20;58.00;;;;;;6085949;23;92587;-86
2023/11/10 05:14:32;;;;;;;1.20;0.70;;;21.20;58.00;;;;;;6084198;23;95876;-85
2023/11/10 05:16:59;;;;;;;0.82;0.60;;;21.20;57.90;;;;;;6087784;23;93853;-85
2023/11/10 05:19:24;;;;;;;2.08;0.80;;;21.20;58.00;;;;;;6086873;23;92130;-85
2023/11/10 05:21:50;;;;;;;1.40;0.70;;;21.20;57.90;;;;;;6084837;23;92756;-85
2023/11/10 05:24:17;;;;;;;1.35;0.90;;;21.20;58.00;;;;;;6085586;23;94908;-85
2023/11/10 05:27:00;;;;;;;0.70;0.60;;;21.20;57.90;;;;;;6085272;23;94462;-85
2023/11/10 05:29:26;;;;;;;1.40;0.77;;;21.20;57.90;;;;;;6083392;23;92405;-85
2023/11/10 05:31:54;;;;;;;0.88;0.50;;;21.20;57.80;;;;;;6084725;23;91724;-85
2023/11/10 05:34:21;;;;;;;0.88;0.70;;;21.20;57.80;;;;;;6088245;23;93536;-86
2023/11/10 05:36:47;;;;;;;0.80;0.70;;;21.20;57.90;;;;;;6085417;23;93129;-85
2023/11/10 05:39:13;;;;;;;1.02;0.60;;;21.20;57.90;;;;;;6083697;23;93309;-85
2023/11/10 05:41:42;;;;;;;1.20;0.60;;;21.20;57.90;;;;;;6087617;23;92677;-86
2023/11/10 05:44:08;;;;;;;;;;;21.20;57.80;;;;;;6084313;23;95538;-85
2023/11/10 05:46:34;;;;;;;0.60;0.60;;;21.20;57.90;;;;;;6086840;23;92851;-86
2023/11/10 05:49:00;;;;;;;1.05;0.75;;;21.20;58.00;;;;;;6085718;23;92396;-85
2023/11/10 05:51:26;;;;;;;0.70;0.70;;;21.10;57.90;;;;;;6084406;23;92937;-85
2023/11/10 05:53:54;;;;;;;0.95;0.70;;;21.10;57.90;;;;;;6084953;23;95201;-86
2023/11/10 05:56:23;;;;;;;1.38;0.93;;;21.10;58.00;;;;;;6086912;23;97077;-85
2023/11/10 05:58:51;;;;;;;0.60;0.52;;;21.10;57.80;;;;;;6086658;23;92671;-85
2023/11/10 06:01:22;;;;;;;0.80;0.73;;;21.10;57.80;;;;;;6085043;23;92381;-85
2023/11/10 06:03:48;;;;;;;1.33;0.80;;;21.10;57.90;;;;;;6083687;23;96127;-85
2023/11/10 06:06:13;;;;;;;1.02;0.60;;;21.10;57.90;;;;;;6110039;22;94582;-85
2023/11/10 06:08:42;;;;;;;0.63;0.52;;;21.10;57.90;;;;;;6083948;23;92439;-85
2023/11/10 06:11:09;;;;;;;0.88;0.55;;;21.10;58.00;;;;;;6084034;23;92111;-85
2023/11/10 06:13:34;;;;;;;0.95;0.65;;;21.10;57.90;;;;;;6086059;23;95233;-85
2023/11/10 06:16:06;;;;;;;1.27;0.65;;;21.10;58.00;;;;;;6085903;23;100053;-86
2023/11/10 06:18:32;;;;;;;1.17;0.65;;;21.10;57.90;;;;;;6084713;23;92329;-84
2023/11/10 06:21:00;;;;;;;0.50;0.50;;;21.10;58.00;;;;;;6086909;23;91766;-85
2023/11/10 06:23:25;;;;;;;0.68;0.68;;;21.10;58.00;;;;;;6083758;23;96752;-85
2023/11/10 06:25:51;;;;;;;1.00;0.70;;;21.00;57.90;;;;;;6082897;23;94260;-85
2023/11/10 06:28:17;;;;;;;0.98;0.70;;;21.10;58.00;;;;;;6086259;23;93512;-85
2023/11/10 06:30:42;;;;;;;0.88;0.60;;;21.10;58.00;;;;;;6086661;23;92048;-85
2023/11/10 06:33:12;;;;;;;1.25;0.65;;;21.00;57.90;;;;;;6085835;23;95239;-86
2023/11/10 06:35:37;;;;;;;1.20;0.63;;;21.10;57.80;;;;;;6087903;23;95627;-85
2023/11/10 06:38:11;;;;;;;1.08;0.73;;;21.00;57.70;;;;;;6088056;23;92539;-85
2023/11/10 06:40:36;;;;;;;1.27;0.57;;;21.00;57.90;;;;;;6085446;23;92843;-87
2023/11/10 06:43:03;;;;;;;1.27;0.80;;;21.00;56.40;;;;;;6086269;23;96150;-87
2023/11/10 06:45:28;;;;;;;1.38;0.70;;;21.00;56.90;;;;;;6084301;23;93862;-86
2023/11/10 06:47:54;;;;;;;1.05;0.60;;;21.00;57.30;;;;;;6085862;23;92521;-86
2023/11/10 06:50:19;;;;;;;1.08;0.80;;;21.00;57.20;;;;;;6087775;23;92396;-84
2023/11/10 06:52:45;;;;;;;3.42;0.80;;;21.00;57.20;;;;;;6087327;23;94334;-87
2023/11/10 06:55:13;;;;;;;1.85;0.85;;;21.00;57.40;;;;;;6091460;23;94657;-84
2023/11/10 06:57:39;;;;;;;3.13;0.85;;;21.00;57.60;;;;;;6085362;23;92829;-86
2023/11/10 07:00:09;;;;;;;1.40;0.73;;;21.10;57.60;;;;;;6086728;23;92685;-86
2023/11/10 07:02:35;;;;;;;0.95;0.57;;;21.10;57.70;;;;;;6088330;23;95029;-86
2023/11/10 07:05:03;;;;;;;1.13;0.70;;;21.20;57.90;;;;;;6088729;23;94860;-86
2023/11/10 07:07:31;;;;;;;1.27;0.80;;;21.20;58.10;;;;;;6114305;22;92612;-87
2023/11/10 07:09:58;;;;;;;4.00;0.68;;;21.20;57.80;;;;;;6068377;23;91391;-91
2023/11/10 07:12:28;;;;;;;0.98;0.60;;;21.30;58.10;;;;;;6087119;23;94178;-87
2023/11/10 07:14:54;;;;;;;2.03;0.80;;;21.30;58.20;;;;;;6083255;23;92947;-88
2023/11/10 07:17:20;;;;;;;3.33;0.63;;;21.30;58.20;;;;;;6111318;22;93112;-89
2023/11/10 07:19:48;;;;;;;1.20;0.82;;;21.30;58.40;;;;;;6086960;23;92435;-87
2023/11/10 07:22:15;;;;;;;2.28;0.90;;;21.40;58.40;;;;;;6115630;22;93794;-86
2023/11/10 07:24:41;;;;;;;1.42;0.82;;;21.40;58.30;;;;;;6091707;23;92956;-88
2023/11/10 07:27:07;;;;;;;4.10;0.93;;;21.40;58.10;;;;;;6090154;23;92315;-88
2023/11/10 07:29:36;;;;;;;1.08;0.88;;;21.40;58.20;;;;;;6083300;23;92163;-89
2023/11/10 07:32:02;;;;;;;1.75;0.70;;;21.40;58.10;;;;;;6086107;23;95294;-85
2023/11/10 07:34:29;;;;;;;1.17;0.70;;;21.40;58.30;;;;;;6089418;23;92933;-86
2023/11/10 07:36:59;;;;;;;4.28;1.00;;;21.40;58.20;;;;;;6087825;23;92708;-86
2023/11/10 07:39:30;;;;;;;2.35;0.80;;;21.40;58.40;;;;;;6085680;23;92469;-87
2023/11/10 07:41:56;;;;;;;1.73;0.77;;;21.40;58.40;;;;;;6084732;23;94074;-86
2023/11/10 07:44:22;;;;;;;1.50;0.90;;;21.40;58.40;;;;;;6090110;23;94558;-87
2023/11/10 07:46:48;;;;;;;2.55;0.80;;;21.40;58.60;;;;;;6090172;23;92502;-87
2023/11/10 07:49:13;;;;;;;1.27;0.70;;;21.40;58.50;;;;;;6087208;23;92186;-86
2023/11/10 07:51:40;;;;;;;1.52;0.77;;;21.40;58.60;;;;;;6084486;23;95375;-86
2023/11/10 07:54:05;;;;;;;1.77;0.93;;;21.40;59.10;;;;;;6086193;23;93448;-86
2023/11/10 07:56:31;;;;;;;5.07;0.93;;;21.40;58.50;;;;;;6088270;23;92178;-86
2023/11/10 07:58:57;;;;;;;1.70;0.82;;;21.40;58.40;;;;;;6081726;23;92451;-87
2023/11/10 08:01:23;;;;;;;4.70;1.02;;;21.40;58.40;;;;;;6090593;23;95429;-85
2023/11/10 08:03:51;;;;;;;5.68;1.25;;;21.40;58.30;;;;;;6093046;23;93577;-85
2023/11/10 08:06:19;;;;;;;2.63;0.93;;;21.40;58.10;;;;;;6089084;23;93699;-88
2023/11/10 08:08:48;;;;;;;10.82;2.20;;;21.40;58.40;;;;;;6083714;22;92675;-90
2023/11/10 08:11:16;;;;;;;18.55;4.30;;;21.40;58.10;;;;;;6090657;23;93691;-90
2023/11/10 08:13:41;;;;;;;26.40;5.18;;;21.50;58.10;;;;;;6091205;23;95780;-92
2023/11/10 08:16:07;;;;;;;16.73;3.42;;;21.40;57.80;;;;;;6094013;23;92195;-92
2023/11/10 08:18:42;;;;;;;28.35;5.43;;;21.50;58.10;;;;;;6091389;23;92012;-88
2023/11/10 08:21:18;;;;;;;34.30;6.85;;;21.50;58.30;;;;;;6091812;23;94514;-92
2023/11/10 08:23:45;;;;;;;20.30;5.15;;;21.50;58.30;;;;;;6064225;23;92960;-85
2023/11/10 08:26:10;;;;;;;22.30;4.32;;;21.50;58.30;;;;;;6090883;23;92680;-88
2023/11/10 08:28:36;;;;;;;21.33;4.35;;;21.60;58.60;;;;;;6091369;23;92603;-89
2023/11/10 08:31:02;;;;;;;25.08;5.50;;;21.60;58.50;;;;;;6088543;23;96688;-88
2023/11/10 08:33:28;;;;;;;21.23;4.97;;;21.60;58.80;;;;;;6089916;23;96367;-89
2023/11/10 08:35:53;;;;;;;25.80;6.47;;;21.60;58.90;;;;;;6090504;23;92674;-88
2023/11/10 08:38:20;;;;;;;29.60;5.70;;;21.60;58.90;;;;;;6086980;23;92239;-87
2023/11/10 08:40:46;;;;;;;18.75;5.00;;;21.70;59.10;;;;;;6083224;23;94001;-87
2023/11/10 08:43:12;;;;;;;22.10;5.90;;;21.70;59.40;;;;;;6088320;23;95155;-87
2023/11/10 08:45:40;;;;;;;15.18;5.32;;;21.70;59.70;;;;;;6091323;23;92557;-88
2023/11/10 08:48:06;;;;;;;19.25;5.40;;;21.70;60.00;;;;;;6088968;23;91674;-88
2023/11/10 08:50:32;;;;;;;20.50;6.35;;;21.70;59.90;;;;;;6088994;23;95107;-90
2023/11/10 08:52:58;;;;;;;21.50;6.00;;;21.70;59.90;;;;;;6089745;23;93429;-90
2023/11/10 08:55:24;;;;;;;17.58;5.78;;;21.80;59.90;;;;;;6091032;23;93152;-88
2023/11/10 08:57:50;;;;;;;20.42;4.82;;;21.80;59.50;;;;;;6090778;23;98492;-85
2023/11/10 09:00:17;;;;;;;22.77;5.65;;;21.80;59.30;;;;;;6091662;23;93869;-87
2023/11/10 09:02:44;;;;;;;23.45;5.82;;;21.70;59.50;;;;;;6087462;23;94130;-87
2023/11/10 09:05:10;;;;;;;19.63;5.20;;;21.80;59.90;;;;;;6086953;23;92479;-88
2023/11/10 09:07:41;;;;;;;22.42;6.82;;;21.70;59.00;;;;;;6115347;23;92467;-85
2023/11/10 09:10:13;;;;;;;17.80;5.05;;;21.80;59.10;;;;;;6095921;23;93999;-86
2023/11/10 09:12:43;;;;;;;23.77;5.68;;;21.80;58.80;;;;;;6089670;23;96620;-87
2023/11/10 09:15:13;;;;;;;16.60;4.93;;;21.80;59.20;;;;;;6090802;23;92394;-88
2023/11/10 09:17:39;;;;;;;18.80;6.05;;;21.80;59.30;;;;;;6091339;23;92536;-87
2023/11/10 09:20:09;;;;;;;17.15;5.60;;;21.80;59.20;;;;;;6084938;23;97445;-86
2023/11/10 09:22:38;;;;;;;18.85;5.25;;;21.80;59.10;;;;;;6080485;23;94156;-86
2023/11/10 09:25:04;;;;;;;;;;;21.80;59.10;;;;;;6084751;23;92609;-86
2023/11/10 09:27:31;;;;;;;20.35;5.47;;;21.80;59.20;;;;;;6081251;23;92577;-84
2023/11/10 09:29:57;;;;;;;18.80;5.43;;;21.80;59.20;;;;;;6090039;23;96842;-86
2023/11/10 09:32:23;;;;;;;13.90;4.88;;;21.80;59.10;;;;;;6087304;23;93201;-85
2023/11/10 09:34:49;;;;;;;17.65;4.60;;;21.80;59.20;;;;;;6087325;23;92054;-85
2023/11/10 09:37:14;;;;;;;15.15;4.00;;;21.80;59.10;;;;;;6090571;23;91640;-88
2023/11/10 09:40:04;;;;;;;22.20;4.95;;;21.80;58.70;;;;;;6091989;23;96044;-88
2023/11/10 09:42:32;;;;;;;;;;;21.80;58.70;;;;;;6090703;23;93930;-90
2023/11/10 09:44:59;;;;;;;10.77;4.00;;;21.80;59.20;;;;;;6092370;23;92820;-88
2023/11/10 09:47:32;;;;;;;15.80;5.03;;;21.90;59.20;;;;;;6098168;23;92283;-92
2023/11/10 09:50:18;;;;;;;15.63;5.03;;;21.80;59.00;;;;;;6079583;23;96375;-86
2023/11/10 09:52:45;;;;;;;17.15;4.50;;;21.90;59.10;;;;;;6115274;23;93598;-91
2023/11/10 09:58:38;;;;;;;12.85;3.35;;;21.90;58.60;;;;;;6102424;23;92161;-91
2023/11/10 10:01:05;;;;;;;13.57;4.68;;;21.90;58.60;;;;;;6099294;23;94125;-89
2023/11/10 10:03:30;;;;;;;14.18;4.40;;;21.90;58.10;;;;;;6131362;23;93792;-91
2023/11/10 10:06:08;;;;;;;10.40;3.72;;;21.90;59.00;;;;;;6095755;23;92265;-88
2023/11/10 10:08:34;;;;;;;13.07;4.32;;;21.90;58.30;;;;;;6074503;23;92502;-89
2023/11/10 10:11:05;;;;;;;15.20;3.53;;;21.90;57.80;;;;;;6092655;23;94911;-92
2023/11/10 10:13:31;;;;;;;14.07;4.55;;;21.90;58.30;;;;;;6090097;23;95237;-90
2023/11/10 10:16:07;;;;;;;13.80;4.07;;;21.90;58.50;;;;;;6081290;23;92414;-92
2023/11/10 10:18:35;;;;;;;14.23;4.65;;;21.90;58.50;;;;;;6090691;23;92392;-87
2023/11/10 10:21:00;;;;;;;12.75;4.22;;;22.00;58.10;;;;;;6067575;23;94006;-91
2023/11/10 10:23:27;;;;;;;17.60;4.63;;;22.00;58.50;;;;;;6097500;23;94845;-92
2023/11/10 10:25:55;;;;;;;20.27;5.00;;;22.00;58.60;;;;;;6092439;23;92559;-92
2023/11/10 10:28:23;;;;;;;9.85;3.97;;;22.10;58.50;;;;;;6070453;23;91302;-95
2023/11/10 10:30:48;;;;;;;12.30;4.40;;;22.10;58.40;;;;;;6094491;23;94881;-92
2023/11/10 10:33:14;;;;;;;13.10;3.72;;;22.10;58.90;;;;;;6095015;23;94717;-87
2023/11/10 10:35:41;;;;;;;12.85;3.83;;;22.20;59.20;;;;;;6098577;23;92999;-93
2023/11/10 10:38:09;;;;;;;11.52;4.03;;;22.10;59.20;;;;;;6098612;23;92978;-94
2023/11/10 10:40:39;;;;;;;12.83;4.00;;;22.10;59.20;;;;;;6064354;23;93446;-90
2023/11/10 10:43:08;;;;;;;14.13;3.75;;;22.10;59.20;;;;;;6060644;23;93446;-89
2023/11/10 10:45:36;;;;;;;10.88;4.07;;;22.20;58.90;;;;;;6082726;23;92538;-91
2023/11/10 10:48:27;;;;;;;12.67;3.20;;;22.20;59.10;;;;;;6095669;23;91936;-88
2023/11/10 10:50:59;;;;;;;10.57;3.53;;;22.20;58.70;;;;;;6094536;23;92510;-94
2023/11/10 10:53:26;;;;;;;9.27;3.33;;;22.20;58.50;;;;;;6099305;23;93247;-90
2023/11/10 10:55:53;;;;;;;9.82;4.13;;;22.20;58.50;;;;;;6099366;23;92331;-91
2023/11/10 10:58:24;;;;;;;14.95;4.15;;;22.20;58.60;;;;;;6099508;23;92541;-90
2023/11/10 11:00:53;;;;;;;9.50;3.53;;;22.20;58.70;;;;;;6096948;23;93972;-88
2023/11/10 11:03:58;;;;;;;11.18;4.05;;;22.20;58.90;;;;;;6098107;23;96314;-91
2023/11/10 11:06:39;;;;;;;9.88;3.67;;;22.30;59.00;;;;;;6102638;23;93626;-90
2023/11/10 11:09:25;;;;;;;11.73;4.05;;;22.30;59.20;;;;;;6085460;23;92033;-89
2023/11/10 11:12:15;;;;;;;10.50;3.80;;;22.30;59.50;;;;;;6087985;23;93754;-89
2023/11/10 11:14:53;;;;;;;11.87;4.07;;;22.30;59.50;;;;;;6124364;22;93513;-88
2023/11/10 11:17:35;;;;;;;11.33;3.40;;;22.40;59.50;;;;;;6100176;23;92145;-90
2023/11/10 11:20:13;;;;;;;;;;;;;;;;;;;;;
2023/11/10 11:22:39;;;;;;;10.15;3.63;;;22.40;59.00;;;;;;6090605;23;95583;-89
2023/11/10 11:25:09;;;;;;;11.70;3.35;;;22.40;59.00;;;;;;6093149;23;93515;-88
2023/11/10 11:27:36;;;;;;;12.43;3.42;;;22.50;58.80;;;;;;6086780;23;93898;-91
2023/11/10 11:30:11;;;;;;;9.52;3.65;;;22.50;58.70;;;;;;6074251;23;92813;-90
2023/11/10 11:33:05;;;;;;;11.88;3.88;;;22.60;58.60;;;;;;6090890;23;93551;-87
2023/11/10 11:35:46;;;;;;;10.90;3.47;;;22.60;58.90;;;;;;6071016;22;92498;-90
2023/11/10 11:38:23;;;;;;;13.00;3.10;;;22.60;58.70;;;;;;6085712;23;92635;-92
2023/11/10 11:40:50;;;;;;;9.65;2.88;;;22.60;58.80;;;;;;6086351;23;92755;-89
2023/11/10 11:43:23;;;;;;;11.05;2.72;;;22.60;58.60;;;;;;6090988;23;94500;-87
2023/11/10 11:45:50;;;;;;;8.45;3.20;;;22.70;58.70;;;;;;6095349;23;92278;-91
2023/11/10 11:48:22;;;;;;;8.70;3.22;;;22.60;58.20;;;;;;6097748;23;92339;-92
2023/11/10 11:50:55;;;;;;;9.45;3.58;;;22.70;58.40;;;;;;6077993;23;92560;-94
2023/11/10 11:53:24;;;;;;;12.48;3.03;;;22.70;57.90;;;;;;6090126;23;93851;-94
2023/11/10 11:55:57;;;;;;;11.80;3.53;;;22.80;57.80;;;;;;6090419;23;93543;-91
2023/11/10 11:58:25;;;;;;;9.93;3.22;;;22.80;57.90;;;;;;6095445;23;92470;-90
2023/11/10 12:00:53;;;;;;;9.27;3.45;;;22.70;57.70;;;;;;6092206;23;92311;-91
2023/11/10 12:03:18;;;;;;;10.18;3.20;;;22.70;57.60;;;;;;6091895;23;94767;-89
2023/11/10 12:05:44;;;;;;;6.78;2.60;;;22.70;57.50;;;;;;6114741;22;92851;-89
2023/11/10 12:08:13;;;;;;;12.30;4.43;;;22.70;57.80;;;;;;6095531;23;92635;-89
2023/11/10 12:10:39;;;;;;;9.55;2.80;;;22.70;57.40;;;;;;6117675;23;91896;-95
2023/11/10 12:13:07;;;;;;;5.03;2.65;;;22.70;57.40;;;;;;6092722;23;93725;-89
2023/11/10 12:15:34;;;;;;;;;;;22.80;57.40;;;;;;6099275;22;93565;-90
2023/11/10 12:18:01;;;;;;;6.20;2.72;;;22.70;57.20;;;;;;6093282;23;93386;-93
2023/11/10 12:20:32;;;;;;;6.22;2.40;;;22.70;57.50;;;;;;6089357;23;92516;-89
2023/11/10 12:23:01;;;;;;;8.75;2.85;;;22.70;57.40;;;;;;6091195;23;94038;-90
2023/11/10 12:25:35;;;;;;;10.37;3.10;;;22.80;56.70;;;;;;6091154;23;94999;-90
2023/11/10 12:28:02;;;;;;;7.15;2.42;;;22.80;56.80;;;;;;6092005;23;92936;-87
2023/11/10 12:30:28;;;;;;;9.30;2.25;;;22.80;56.50;;;;;;6090285;23;92466;-89
2023/11/10 12:32:55;;;;;;;8.65;2.58;;;22.80;56.30;;;;;;6088256;23;93545;-88
2023/11/10 12:35:22;;;;;;;6.80;2.15;;;22.80;56.30;;;;;;6093070;23;92595;-88
2023/11/10 12:37:52;;;;;;;8.13;2.80;;;22.80;56.70;;;;;;6093083;23;91962;-90
2023/11/10 12:40:22;;;;;;;6.57;2.70;;;22.80;57.00;;;;;;6090571;23;92610;-91
2023/11/10 12:42:48;;;;;;;;;;;22.80;56.80;;;;;;6089207;23;94637;-89
2023/11/10 12:45:19;;;;;;;11.70;2.70;;;22.90;56.80;;;;;;6091695;23;97223;-91
2023/11/10 12:47:47;;;;;;;6.90;2.67;;;22.90;57.30;;;;;;6090933;23;92114;-90
2023/11/10 12:50:16;;;;;;;7.10;2.17;;;22.90;57.00;;;;;;6094448;23;92324;-90
2023/11/10 12:52:52;;;;;;;8.75;2.35;;;22.90;56.60;;;;;;6093159;23;92618;-90
2023/11/10 12:55:18;;;;;;;9.93;2.45;;;22.90;57.30;;;;;;6067763;23;94702;-92